Time;durP1;ratioP1;P1;durP2;ratioP2;P2;SDS_P1;SDS_P2;PMS_P1;PMS_P2;Temp;Humidity;BMP_temperature;BMP_pressure;BME280_temperature;BME280_humidity;BME280_pressure;Samples;Min_cycle;Max_cycle;Signal;HPM_P1;HPM_P2
2021/09/07 00:01:23;;;;;;;13.00;9.43;;;;;;;13.30;95.43;96596.69;5031964;28;24411;-77
2021/09/07 00:03:48;;;;;;;17.80;9.05;;;;;;;13.30;95.57;96588.88;5032394;28;24495;-77
2021/09/07 00:06:14;;;;;;;11.67;8.23;;;;;;;13.31;95.14;96588.81;5034185;28;24392;-77
2021/09/07 00:08:39;;;;;;;12.80;9.10;;;;;;;13.26;94.35;96590.84;5025527;28;24503;-77
2021/09/07 00:11:06;;;;;;;9.67;8.47;;;;;;;13.23;94.52;96590.16;5014645;28;24462;-76
2021/09/07 00:13:31;;;;;;;10.77;8.05;;;;;;;13.23;93.66;96588.41;5013419;28;24999;-77
2021/09/07 00:15:56;;;;;;;10.95;7.97;;;;;;;13.12;93.45;96582.97;5030753;28;24415;-77
2021/09/07 00:18:22;;;;;;;8.63;7.73;;;;;;;13.14;94.28;96585.50;5031458;28;25054;-77
2021/09/07 00:20:47;;;;;;;13.13;8.27;;;;;;;13.17;93.81;96586.16;5025315;28;24538;-77
2021/09/07 00:23:13;;;;;;;15.33;9.53;;;;;;;13.15;94.26;96581.97;5031354;28;24415;-77
2021/09/07 00:25:38;;;;;;;13.70;9.73;;;;;;;13.07;95.44;96585.03;5031293;28;24450;-77
2021/09/07 00:28:03;;;;;;;17.53;9.63;;;;;;;13.07;95.94;96583.28;5029917;28;24435;-77
2021/09/07 00:30:30;;;;;;;14.17;9.10;;;;;;;13.12;95.37;96584.75;5031616;28;24404;-77
2021/09/07 00:32:55;;;;;;;11.10;9.50;;;;;;;13.15;94.24;96580.22;5031198;28;24957;-77
2021/09/07 00:35:22;;;;;;;13.57;9.33;;;;;;;13.15;94.88;96577.59;5013126;28;24408;-77
2021/09/07 00:37:47;;;;;;;10.18;8.95;;;;;;;13.20;94.42;96583.38;5031289;28;24396;-77
2021/09/07 00:40:13;;;;;;;12.10;9.20;;;;;;;13.22;94.36;96580.69;5029881;28;24467;-77
2021/09/07 00:42:38;;;;;;;13.00;9.10;;;;;;;13.08;96.17;96577.13;5030781;28;24446;-77
2021/09/07 00:45:06;;;;;;;11.27;9.03;;;;;;;13.01;96.59;96575.00;5030979;28;24967;-77
2021/09/07 00:47:31;;;;;;;11.55;8.63;;;;;;;13.07;95.87;96574.63;5022493;28;24396;-77
2021/09/07 00:49:57;;;;;;;12.10;8.70;;;;;;;13.08;94.58;96573.69;5030996;28;24984;-77
2021/09/07 00:52:24;;;;;;;12.93;9.15;;;;;;;13.02;94.86;96577.53;5017801;28;24415;-77
2021/09/07 00:54:49;;;;;;;11.75;8.98;;;;;;;12.88;96.64;96580.09;5011032;28;24420;-77
2021/09/07 00:57:15;;;;;;;9.82;8.50;;;;;;;12.91;96.65;96576.50;5010744;28;24488;-77
2021/09/07 00:59:40;;;;;;;12.63;8.10;;;;;;;12.91;95.98;96579.09;5029325;28;24555;-77
2021/09/07 01:02:07;;;;;;;10.53;8.77;;;;;;;12.96;94.36;96574.44;5026247;28;25021;-77
2021/09/07 01:04:33;;;;;;;9.67;8.27;;;;;;;12.94;93.55;96573.69;5011089;28;24432;-77
2021/09/07 01:07:00;;;;;;;9.75;7.72;;;;;;;12.77;95.74;96569.50;5025819;28;24393;-77
2021/09/07 01:09:25;;;;;;;18.88;10.82;;;;;;;12.87;97.10;96572.38;5025972;28;24439;-77
2021/09/07 01:11:50;;;;;;;14.87;9.40;;;;;;;12.91;94.26;96574.72;5010741;28;24934;-77
2021/09/07 01:14:19;;;;;;;15.00;9.17;;;;;;;12.80;92.73;96571.91;5025951;28;24455;-77
2021/09/07 01:16:45;;;;;;;12.63;8.88;;;;;;;12.75;92.42;96573.94;5010538;28;24411;-77
2021/09/07 01:19:11;;;;;;;16.35;9.05;;;;;;;12.82;90.84;96570.88;5015082;28;24410;-77
2021/09/07 01:21:37;;;;;;;22.17;11.90;;;;;;;12.77;92.55;96566.91;5030424;28;25016;-77
2021/09/07 01:24:02;;;;;;;13.98;9.95;;;;;;;12.62;94.01;96563.44;5029165;28;24463;-77
2021/09/07 01:26:28;;;;;;;10.63;8.57;;;;;;;12.48;95.10;96565.97;5012432;28;24399;-76
2021/09/07 01:28:53;;;;;;;12.53;9.90;;;;;;;12.37;97.36;96564.00;5030314;28;24451;-77
2021/09/07 01:31:19;;;;;;;11.63;8.87;;;;;;;12.39;97.07;96567.34;5030561;28;24392;-77
2021/09/07 01:33:47;;;;;;;16.73;9.23;;;;;;;12.38;97.70;96564.84;5030254;28;24507;-77
2021/09/07 01:36:15;;;;;;;11.15;8.75;;;;;;;12.44;96.67;96564.50;5028718;28;24455;-77
2021/09/07 01:38:41;;;;;;;11.63;8.57;;;;;;;12.40;97.59;96570.78;5030694;28;24921;-77
2021/09/07 01:41:07;;;;;;;9.70;8.70;;;;;;;12.38;98.05;96567.44;5030205;28;24404;-77
2021/09/07 01:43:32;;;;;;;12.15;9.48;;;;;;;12.41;98.46;96567.25;5012345;28;24976;-77
2021/09/07 01:45:57;;;;;;;10.47;8.53;;;;;;;12.42;97.66;96562.00;5030441;28;24403;-77
2021/09/07 01:48:24;;;;;;;13.10;8.93;;;;;;;12.40;96.43;96563.81;5029114;28;25041;-76
2021/09/07 01:50:50;;;;;;;11.68;9.00;;;;;;;12.34;97.01;96562.41;5030123;28;24416;-77
2021/09/07 01:53:16;;;;;;;9.33;8.27;;;;;;;12.43;94.84;96557.63;5016230;28;24430;-77
2021/09/07 01:55:42;;;;;;;11.77;9.05;;;;;;;12.39;95.93;96550.94;5018348;28;24428;-77
2021/09/07 01:58:07;;;;;;;10.32;8.38;;;;;;;12.27;95.29;96550.72;5033962;28;24423;-77
2021/09/07 02:00:33;;;;;;;11.90;7.83;;;;;;;12.34;92.06;96559.81;5017332;28;24443;-77
2021/09/07 02:02:58;;;;;;;9.82;8.52;;;;;;;12.18;96.13;96553.00;5010688;28;24416;-77
2021/09/07 02:05:24;;;;;;;11.00;8.10;;;;;;;12.22;95.70;96557.09;5028631;28;24902;-77
2021/09/07 02:07:50;;;;;;;11.13;7.85;;;;;;;12.21;94.20;96556.25;5028674;28;24858;-77
2021/09/07 02:10:16;;;;;;;13.10;8.23;;;;;;;12.23;92.83;96553.56;5028768;28;24400;-77
2021/09/07 02:12:41;;;;;;;11.15;7.75;;;;;;;12.03;94.16;96552.09;5029837;28;24956;-76
2021/09/07 02:15:08;;;;;;;12.80;8.93;;;;;;;11.94;95.54;96537.00;5029740;28;24402;-77
2021/09/07 02:17:33;;;;;;;14.98;10.20;;;;;;;11.99;96.62;96545.41;5029777;28;24450;-77
2021/09/07 02:19:59;;;;;;;14.30;10.02;;;;;;;12.03;97.00;96541.72;5028896;28;24396;-77
2021/09/07 02:22:25;;;;;;;14.82;9.80;;;;;;;12.06;96.97;96546.75;5029896;28;24407;-77
2021/09/07 02:24:51;;;;;;;13.70;9.93;;;;;;;12.02;97.32;96538.28;5029775;28;24415;-77
2021/09/07 02:27:16;;;;;;;11.77;9.13;;;;;;;12.06;96.57;96544.97;5029694;28;24400;-77
2021/09/07 02:29:41;;;;;;;12.70;9.47;;;;;;;11.97;97.83;96552.44;5029808;28;24450;-77
2021/09/07 02:32:07;;;;;;;11.33;8.63;;;;;;;12.05;99.15;96545.03;5029851;28;24758;-77
2021/09/07 02:34:33;;;;;;;12.80;8.98;;;;;;;12.08;98.50;96540.50;5029768;28;24502;-77
2021/09/07 02:36:59;;;;;;;10.52;8.52;;;;;;;12.11;96.67;96540.34;5031214;28;24416;-77
2021/09/07 02:39:24;;;;;;;14.50;9.93;;;;;;;12.11;96.43;96544.72;5015631;28;24427;-77
2021/09/07 02:41:49;;;;;;;14.13;9.82;;;;;;;12.02;96.49;96550.44;5032080;28;24435;-77
2021/09/07 02:44:15;;;;;;;11.80;8.90;;;;;;;12.01;98.22;96548.72;5033748;28;24949;-76
2021/09/07 02:46:40;;;;;;;12.90;8.37;;;;;;;12.09;99.33;96554.34;5032916;28;24745;-77
2021/09/07 02:49:05;;;;;;;10.27;8.17;;;;;;;12.11;94.07;96547.31;5033109;28;24522;-76
2021/09/07 02:51:31;;;;;;;9.20;7.63;;;;;;;12.11;92.87;96539.50;5031872;28;24467;-76
2021/09/07 02:53:56;;;;;;;9.30;8.30;;;;;;;11.99;93.79;96538.44;5032762;28;24434;-76
2021/09/07 02:56:21;;;;;;;12.00;8.70;;;;;;;12.01;93.29;96539.19;5032784;28;24407;-76
2021/09/07 02:58:47;;;;;;;12.83;8.90;;;;;;;11.94;95.37;96544.81;5033083;28;24453;-76
2021/09/07 03:01:12;;;;;;;12.75;9.23;;;;;;;11.81;96.88;96537.69;5032986;28;24466;-76
2021/09/07 03:03:37;;;;;;;14.20;8.63;;;;;;;11.72;97.81;96546.00;5031638;28;24412;-76
2021/09/07 03:06:03;;;;;;;11.10;8.47;;;;;;;11.64;98.72;96542.94;5031258;28;24797;-76
2021/09/07 03:08:29;;;;;;;14.23;9.30;;;;;;;11.63;97.63;96530.91;5032599;28;24418;-76
2021/09/07 03:10:56;;;;;;;11.57;8.75;;;;;;;11.59;99.01;96538.00;5031420;28;25020;-77
2021/09/07 03:13:21;;;;;;;11.40;8.95;;;;;;;11.61;98.88;96531.00;5031438;28;24416;-77
2021/09/07 03:15:47;;;;;;;9.73;8.13;;;;;;;11.61;98.74;96541.38;5031058;28;24812;-76
2021/09/07 03:18:13;;;;;;;11.17;8.17;;;;;;;11.63;97.40;96544.72;5031452;28;24431;-76
2021/09/07 03:20:38;;;;;;;13.98;7.97;;;;;;;11.63;97.37;96534.34;5032591;28;24403;-76
2021/09/07 03:23:04;;;;;;;11.10;7.93;;;;;;;11.70;96.31;96534.00;5032381;28;24411;-76
2021/09/07 03:25:29;;;;;;;13.63;8.95;;;;;;;11.75;94.91;96529.38;5032240;28;24770;-77
2021/09/07 03:27:54;;;;;;;14.60;8.77;;;;;;;11.72;95.34;96524.41;5031227;28;24938;-76
2021/09/07 03:30:20;;;;;;;10.87;8.43;;;;;;;11.62;96.42;96531.84;5031332;28;24516;-76
2021/09/07 03:32:45;;;;;;;11.98;8.70;;;;;;;11.62;95.02;96529.25;5031027;28;24949;-76
2021/09/07 03:35:10;;;;;;;13.63;8.27;;;;;;;11.56;95.65;96526.97;5031909;28;24407;-76
2021/09/07 03:37:36;;;;;;;12.47;9.20;;;;;;;11.47;96.28;96527.50;5032123;28;24394;-77
2021/09/07 03:40:02;;;;;;;11.67;8.30;;;;;;;11.42;97.36;96521.69;5030945;28;24408;-76
2021/09/07 03:42:27;;;;;;;10.57;8.50;;;;;;;11.42;98.19;96513.91;5032086;28;24396;-77
2021/09/07 03:44:52;;;;;;;13.57;8.80;;;;;;;11.41;98.96;96520.84;5030827;28;24506;-77
2021/09/07 03:47:18;;;;;;;15.32;9.02;;;;;;;11.46;98.59;96516.28;5030589;28;24396;-77
2021/09/07 03:49:43;;;;;;;11.47;8.80;;;;;;;11.61;96.76;96507.66;5030681;28;24436;-77
2021/09/07 03:52:09;;;;;;;14.27;9.73;;;;;;;11.63;97.21;96510.97;5032000;28;24523;-77
2021/09/07 03:54:34;;;;;;;12.63;9.73;;;;;;;11.56;97.75;96508.81;5031807;28;24546;-76
2021/09/07 03:57:00;;;;;;;13.70;9.20;;;;;;;11.45;98.83;96509.38;5031725;28;24454;-77
2021/09/07 03:59:25;;;;;;;12.37;9.43;;;;;;;11.44;98.87;96504.31;5030644;28;25011;-77
2021/09/07 04:01:51;;;;;;;12.43;9.47;;;;;;;11.48;97.92;96505.81;5031805;28;24435;-77
2021/09/07 04:04:18;;;;;;;11.38;8.27;;;;;;;11.48;96.96;96514.41;5031824;28;24414;-77
2021/09/07 04:06:44;;;;;;;8.57;7.80;;;;;;;11.50;96.12;96512.59;5031369;28;24747;-77
2021/09/07 04:09:09;;;;;;;8.57;7.77;;;;;;;11.51;95.54;96503.06;5025194;28;24985;-78
2021/09/07 04:11:35;;;;;;;12.10;8.00;;;;;;;11.41;95.26;96500.09;5028766;28;24900;-78
2021/09/07 04:14:00;;;;;;;7.97;7.10;;;;;;;11.26;95.69;96503.53;5030308;28;24419;-78
2021/09/07 04:16:26;;;;;;;11.77;7.57;;;;;;;11.19;95.63;96510.81;5033886;28;25265;-81
2021/09/07 04:18:51;;;;;;;12.30;8.43;;;;;;;11.23;96.39;96507.13;5026312;28;24551;-81
2021/09/07 04:21:17;;;;;;;9.30;7.33;;;;;;;11.22;96.64;96513.22;5029705;28;24859;-78
2021/09/07 04:23:42;;;;;;;11.15;7.75;;;;;;;11.22;97.16;96518.41;5031264;28;24416;-78
2021/09/07 04:26:08;;;;;;;9.60;7.83;;;;;;;11.19;96.95;96510.81;5031658;28;24411;-78
2021/09/07 04:28:33;;;;;;;10.17;8.27;;;;;;;11.21;96.31;96511.56;5035219;28;24957;-78
2021/09/07 04:30:58;;;;;;;11.87;7.50;;;;;;;11.13;97.25;96516.34;5033596;28;24968;-77
2021/09/07 04:33:24;;;;;;;10.10;8.03;;;;;;;11.06;99.43;96515.81;5031805;28;24422;-76
2021/09/07 04:35:49;;;;;;;11.07;8.50;;;;;;;11.07;98.60;96514.88;5028695;28;25059;-77
2021/09/07 04:38:14;;;;;;;9.88;8.35;;;;;;;11.05;99.06;96510.69;5031119;28;24487;-77
2021/09/07 04:40:40;;;;;;;15.43;9.53;;;;;;;11.09;99.08;96515.66;5031142;28;24412;-77
2021/09/07 04:43:05;;;;;;;11.80;8.87;;;;;;;11.18;97.92;96521.25;5029888;28;24562;-77
2021/09/07 04:45:30;;;;;;;11.37;8.93;;;;;;;11.19;97.13;96515.97;5030582;28;24478;-76
2021/09/07 04:47:56;;;;;;;13.07;8.83;;;;;;;11.10;98.67;96517.31;5029509;28;24435;-77
2021/09/07 04:50:21;;;;;;;9.73;8.57;;;;;;;11.20;98.35;96520.28;5030441;28;24463;-77
2021/09/07 04:52:46;;;;;;;11.10;8.93;;;;;;;11.16;97.65;96521.34;5029319;28;24845;-76
2021/09/07 04:55:12;;;;;;;10.32;8.57;;;;;;;11.11;98.52;96524.16;5036940;28;24403;-77
2021/09/07 04:57:37;;;;;;;10.43;7.83;;;;;;;11.19;95.98;96526.34;5037481;28;24411;-76
2021/09/07 05:00:03;;;;;;;10.23;8.63;;;;;;;11.18;96.04;96532.47;5032961;28;24439;-77
2021/09/07 05:02:33;;;;;;;11.57;8.40;;;;;;;11.05;97.68;96526.25;5031126;28;24427;-77
2021/09/07 05:05:03;;;;;;;9.50;8.45;;;;;;;10.93;98.99;96527.72;5013354;28;24479;-77
2021/09/07 05:07:28;;;;;;;10.15;7.97;;;;;;;10.92;99.55;96520.03;5029573;28;24413;-76
2021/09/07 05:09:54;;;;;;;9.47;7.77;;;;;;;10.97;99.63;96528.41;5030650;28;24470;-77
2021/09/07 05:12:20;;;;;;;11.27;8.90;;;;;;;11.06;99.62;96538.31;5030636;28;24407;-78
2021/09/07 05:14:45;;;;;;;11.33;8.97;;;;;;;11.11;100.00;96526.75;5030728;28;25003;-77
2021/09/07 05:17:11;;;;;;;9.87;7.80;;;;;;;11.16;100.00;96534.31;5028863;28;24869;-78
2021/09/07 05:19:36;;;;;;;10.63;8.13;;;;;;;11.24;100.00;96544.28;5030424;28;24388;-78
2021/09/07 05:22:02;;;;;;;12.17;7.90;;;;;;;11.37;99.65;96540.94;5029429;28;24443;-78
2021/09/07 05:24:27;;;;;;;10.73;8.03;;;;;;;11.35;98.61;96544.53;5030535;28;24596;-77
2021/09/07 05:26:53;;;;;;;10.23;7.87;;;;;;;11.36;97.77;96541.84;5030232;28;24400;-78
2021/09/07 05:29:18;;;;;;;9.43;6.90;;;;;;;11.25;98.45;96540.75;5030197;28;24427;-78
2021/09/07 05:31:43;;;;;;;11.98;7.57;;;;;;;11.20;99.49;96537.56;5030504;28;24949;-78
2021/09/07 05:34:09;;;;;;;9.17;7.93;;;;;;;11.25;99.75;96538.16;5030149;28;24419;-78
2021/09/07 05:36:34;;;;;;;11.43;7.90;;;;;;;11.36;99.90;96539.25;5012418;28;24400;-77
2021/09/07 05:38:59;;;;;;;11.70;7.93;;;;;;;11.32;100.00;96542.94;5030407;28;24399;-78
2021/09/07 05:41:25;;;;;;;11.25;7.47;;;;;;;11.37;100.00;96542.69;5029032;28;24887;-78
2021/09/07 05:43:50;;;;;;;12.75;7.90;;;;;;;11.41;100.00;96545.97;5030229;28;24407;-78
2021/09/07 05:46:16;;;;;;;9.10;7.83;;;;;;;11.52;100.00;96541.88;5030100;28;24396;-78
2021/09/07 05:48:41;;;;;;;10.87;8.63;;;;;;;11.61;99.67;96548.34;5029761;28;24977;-78
2021/09/07 05:51:06;;;;;;;12.32;9.77;;;;;;;11.67;99.76;96554.94;5029001;28;24968;-77
2021/09/07 05:53:32;;;;;;;12.97;9.63;;;;;;;11.73;99.22;96557.19;5029154;28;24563;-78
2021/09/07 05:55:57;;;;;;;11.63;9.43;;;;;;;11.74;98.36;96554.50;5030072;28;24396;-78
2021/09/07 05:58:22;;;;;;;12.00;8.50;;;;;;;11.65;100.00;96560.22;5028964;28;24515;-77
2021/09/07 06:00:47;;;;;;;12.88;9.45;;;;;;;11.58;100.00;96558.88;5033584;28;24403;-77
2021/09/07 06:03:13;;;;;;;16.30;9.90;;;;;;;11.56;100.00;96552.91;5048740;28;24426;-77
2021/09/07 06:05:38;;;;;;;10.30;9.00;;;;;;;11.61;100.00;96563.91;5048389;28;24502;-77
2021/09/07 06:08:04;;;;;;;11.60;10.13;;;;;;;11.73;100.00;96563.22;5031987;28;24474;-77
2021/09/07 06:10:29;;;;;;;14.95;10.63;;;;;;;11.83;100.00;96564.44;5032835;28;24411;-77
2021/09/07 06:12:55;;;;;;;12.68;9.57;;;;;;;11.95;100.00;96559.47;5034277;28;24420;-78
2021/09/07 06:15:20;;;;;;;14.48;9.98;;;;;;;12.06;100.00;96560.56;5016587;28;24988;-77
2021/09/07 06:17:46;;;;;;;14.50;9.70;;;;;;;12.14;100.00;96567.91;5016683;28;24973;-78
2021/09/07 06:20:11;;;;;;;12.63;9.37;;;;;;;12.22;100.00;96570.91;5032262;28;24937;-77
2021/09/07 06:22:37;;;;;;;10.70;8.83;;;;;;;12.27;100.00;96574.09;5032151;28;24432;-77
2021/09/07 06:25:04;;;;;;;11.70;9.30;;;;;;;12.38;100.00;96580.41;5032675;28;25039;-77
2021/09/07 06:27:30;;;;;;;12.65;9.43;;;;;;;12.56;100.00;96585.41;5033508;28;24937;-78
2021/09/07 06:29:55;;;;;;;10.30;9.20;;;;;;;12.73;100.00;96581.84;5032230;28;24435;-77
2021/09/07 06:32:21;;;;;;;12.93;9.68;;;;;;;12.84;100.00;96574.25;5033378;28;24959;-76
2021/09/07 06:34:46;;;;;;;11.60;9.07;;;;;;;12.94;100.00;96576.28;5032118;28;24769;-77
2021/09/07 06:37:12;;;;;;;10.43;8.70;;;;;;;13.03;99.26;96578.34;5033111;28;24931;-77
2021/09/07 06:39:37;;;;;;;11.60;8.73;;;;;;;12.88;99.29;96584.47;5032022;28;24966;-77
2021/09/07 06:42:05;;;;;;;10.60;8.97;;;;;;;12.82;99.30;96575.25;5033253;28;24443;-77
2021/09/07 06:44:30;;;;;;;13.05;9.85;;;;;;;12.80;98.55;96575.34;5031882;28;24778;-77
2021/09/07 06:46:56;;;;;;;10.80;9.20;;;;;;;12.96;99.07;96583.06;5015213;28;24415;-77
2021/09/07 06:49:21;;;;;;;9.73;8.70;;;;;;;13.08;98.71;96581.50;5031312;28;24432;-77
2021/09/07 06:51:46;;;;;;;11.40;9.30;;;;;;;13.18;98.42;96587.84;5031902;28;24455;-77
2021/09/07 06:54:11;;;;;;;11.60;9.40;;;;;;;13.20;96.84;96575.59;5032841;28;24502;-78
2021/09/07 06:56:37;;;;;;;11.93;9.35;;;;;;;13.30;96.95;96583.69;5015025;28;24448;-77
2021/09/07 06:59:02;;;;;;;13.83;9.37;;;;;;;13.44;97.02;96582.84;5031828;28;24467;-77
2021/09/07 07:01:27;;;;;;;11.57;8.63;;;;;;;13.65;96.03;96578.09;5032780;28;24934;-77
2021/09/07 07:03:53;;;;;;;11.73;9.13;;;;;;;13.88;95.54;96574.88;5031674;28;24412;-78
2021/09/07 07:06:18;;;;;;;11.10;9.63;;;;;;;13.99;92.17;96582.00;5031461;28;24554;-77
2021/09/07 07:08:43;;;;;;;11.20;9.90;;;;;;;14.03;92.51;96579.13;5033092;28;24499;-78
2021/09/07 07:11:09;;;;;;;17.57;9.80;;;;;;;14.05;92.16;96568.59;5033932;28;24446;-77
2021/09/07 07:13:34;;;;;;;14.77;9.57;;;;;;;14.35;92.09;96571.00;5034469;28;24840;-77
2021/09/07 07:15:59;;;;;;;14.80;9.87;;;;;;;14.69;90.72;96572.25;5033127;28;25024;-76
2021/09/07 07:18:25;;;;;;;10.80;9.35;;;;;;;15.01;90.09;96584.91;5031227;28;24495;-77
2021/09/07 07:20:50;;;;;;;12.43;9.83;;;;;;;15.23;87.65;96584.28;5032689;28;24388;-76
2021/09/07 07:23:15;;;;;;;15.57;10.07;;;;;;;15.38;86.39;96587.59;5032662;28;24410;-76
2021/09/07 07:25:42;;;;;;;14.07;10.02;;;;;;;15.48;85.64;96583.44;5032587;28;24491;-77
2021/09/07 07:28:07;;;;;;;25.52;9.50;;;;;;;15.50;84.47;96584.19;5014688;28;25140;-76
2021/09/07 07:30:33;;;;;;;14.83;9.43;;;;;;;15.54;86.15;96583.03;5014874;28;24403;-76
2021/09/07 07:32:58;;;;;;;16.77;9.70;;;;;;;15.62;85.50;96580.69;5032362;28;24998;-76
2021/09/07 07:35:23;;;;;;;16.47;9.57;;;;;;;15.66;85.24;96576.97;5032234;28;24396;-76
2021/09/07 07:37:49;;;;;;;13.13;9.00;;;;;;;15.72;85.66;96583.50;5032584;28;24396;-77
2021/09/07 07:40:15;;;;;;;14.60;9.20;;;;;;;15.75;84.94;96579.84;5034212;28;24423;-77
2021/09/07 07:42:41;;;;;;;11.90;9.02;;;;;;;15.77;84.49;96581.44;5014817;28;24979;-77
2021/09/07 07:45:06;;;;;;;13.73;9.30;;;;;;;15.84;84.08;96592.28;5032395;28;24412;-77
2021/09/07 07:47:31;;;;;;;14.73;8.83;;;;;;;16.04;83.79;96599.53;5031739;28;24945;-77
2021/09/07 07:49:57;;;;;;;11.60;9.33;;;;;;;15.90;81.49;96603.09;5032492;28;24423;-76
2021/09/07 07:52:22;;;;;;;10.70;8.83;;;;;;;15.86;82.34;96598.22;5032245;28;24455;-76
2021/09/07 07:54:50;;;;;;;12.93;9.70;;;;;;;15.84;83.52;96606.19;5030589;28;24408;-75
2021/09/07 07:57:16;;;;;;;13.38;9.43;;;;;;;15.88;83.68;96606.78;5014054;28;24411;-76
2021/09/07 07:59:41;;;;;;;15.03;9.30;;;;;;;15.86;84.35;96606.06;5037329;28;24419;-76
2021/09/07 08:02:07;;;;;;;15.77;9.67;;;;;;;15.75;85.84;96609.41;5042669;28;24415;-76
2021/09/07 08:04:32;;;;;;;19.70;10.00;;;;;;;15.77;85.59;96614.56;5040083;28;24410;-77
2021/09/07 08:06:57;;;;;;;13.43;9.23;;;;;;;15.82;85.56;96609.81;5038763;28;24984;-75
2021/09/07 08:09:23;;;;;;;20.37;9.57;;;;;;;15.72;85.61;96607.88;5039776;28;24428;-77
2021/09/07 08:11:48;;;;;;;14.18;9.23;;;;;;;15.79;87.09;96608.25;5033246;28;24454;-77
2021/09/07 08:14:13;;;;;;;12.90;8.97;;;;;;;16.01;87.45;96597.13;5031982;28;24486;-76
2021/09/07 08:16:39;;;;;;;15.53;9.13;;;;;;;16.45;85.48;96600.94;5031293;28;24499;-76
2021/09/07 08:19:04;;;;;;;11.90;9.50;;;;;;;16.54;83.51;96605.50;5013632;28;24448;-78
2021/09/07 08:21:29;;;;;;;13.37;9.50;;;;;;;16.72;83.05;96603.28;5030397;28;24436;-77
2021/09/07 08:23:56;;;;;;;14.30;9.52;;;;;;;17.06;81.19;96611.28;5031266;28;24416;-77
2021/09/07 08:26:21;;;;;;;12.00;9.07;;;;;;;17.53;81.73;96604.19;5031295;28;24392;-77
2021/09/07 08:28:46;;;;;;;11.90;9.77;;;;;;;17.80;78.38;96602.09;5031353;28;24482;-77
2021/09/07 08:31:11;;;;;;;11.47;9.13;;;;;;;17.78;78.67;96605.78;5031495;28;24384;-77
2021/09/07 08:33:37;;;;;;;12.73;10.13;;;;;;;18.09;77.96;96602.38;5030697;28;24404;-77
2021/09/07 08:36:02;;;;;;;12.27;9.07;;;;;;;18.48;76.29;96597.50;5029773;28;25012;-77
2021/09/07 08:38:30;;;;;;;13.37;9.23;;;;;;;18.77;72.64;96610.09;5013378;28;25024;-77
2021/09/07 08:40:57;;;;;;;15.75;9.07;;;;;;;18.91;71.42;96609.78;5031182;28;24952;-78
2021/09/07 08:43:22;;;;;;;11.70;8.65;;;;;;;19.06;70.13;96607.66;5030328;28;24458;-77
2021/09/07 08:45:55;;;;;;;12.20;9.13;;;;;;;19.19;69.81;96605.66;5029581;28;25004;-76
2021/09/07 08:48:24;;;;;;;9.73;8.30;;;;;;;19.29;69.40;96600.47;5030598;28;24439;-76
2021/09/07 08:50:50;;;;;;;11.80;8.70;;;;;;;19.28;66.30;96602.28;5013478;28;24494;-77
2021/09/07 08:53:16;;;;;;;9.18;8.23;;;;;;;19.58;64.56;96603.25;5030778;28;24483;-77
2021/09/07 08:55:42;;;;;;;12.23;8.60;;;;;;;19.67;63.64;96606.91;5030593;28;24408;-77
2021/09/07 08:58:07;;;;;;;11.10;7.27;;;;;;;19.91;58.23;96598.69;5029779;28;24403;-76
2021/09/07 09:00:33;;;;;;;15.50;8.00;;;;;;;19.94;55.64;96598.41;5031549;28;24467;-77
2021/09/07 09:03:08;;;;;;;9.48;7.03;;;;;;;19.85;57.78;96609.75;5033771;28;24404;-77
2021/09/07 09:05:33;;;;;;;10.02;8.13;;;;;;;19.60;58.17;96609.19;5030840;28;24448;-77
2021/09/07 09:07:59;;;;;;;10.07;7.80;;;;;;;19.53;56.73;96611.50;5030680;28;24762;-77
2021/09/07 09:10:25;;;;;;;9.53;7.60;;;;;;;19.54;57.79;96610.56;5029779;28;25012;-77
2021/09/07 09:13:12;;;;;;;11.38;7.30;;;;;;;19.55;59.52;96614.84;5031051;28;24407;-76
2021/09/07 09:15:38;;;;;;;11.48;7.60;;;;;;;19.77;57.96;96615.69;5029492;28;25008;-77
2021/09/07 09:18:09;;;;;;;9.18;7.60;;;;;;;19.97;54.93;96617.38;5029218;28;24422;-76
2021/09/07 09:20:36;;;;;;;10.90;8.18;;;;;;;20.17;53.73;96626.19;5012863;28;24412;-76
2021/09/07 09:23:03;;;;;;;8.80;7.70;;;;;;;20.24;53.36;96615.94;5012651;28;24418;-77
2021/09/07 09:25:39;;;;;;;8.77;7.72;;;;;;;20.36;53.28;96620.13;5029226;28;24463;-77
2021/09/07 09:28:06;;;;;;;9.30;7.80;;;;;;;20.71;53.39;96616.16;5012910;28;24404;-77
2021/09/07 09:30:43;;;;;;;9.23;7.78;;;;;;;20.81;52.54;96618.81;5034436;28;24404;-78
2021/09/07 09:33:11;;;;;;;9.38;7.88;;;;;;;20.93;53.85;96615.06;5018978;28;24422;-77
2021/09/07 09:35:48;;;;;;;10.05;7.57;;;;;;;21.08;53.93;96600.47;5017908;28;24412;-78
2021/09/07 09:38:14;;;;;;;11.25;7.53;;;;;;;21.12;52.84;96612.41;5018608;28;24975;-78
2021/09/07 09:40:40;;;;;;;12.18;7.78;;;;;;;21.27;54.31;96618.06;5037000;28;24503;-78
2021/09/07 09:43:42;;;;;;;10.73;7.93;;;;;;;21.45;54.22;96619.00;5037229;28;24470;-78
2021/09/07 09:46:27;;;;;;;9.63;7.50;;;;;;;21.57;54.71;96614.41;5038342;28;24466;-77
2021/09/07 09:49:17;;;;;;;14.27;7.47;;;;;;;21.61;54.62;96618.41;5039102;28;24472;-78
2021/09/07 09:51:42;;;;;;;9.65;7.57;;;;;;;21.71;55.06;96613.09;5040395;28;24416;-78
2021/09/07 09:54:08;;;;;;;9.60;7.65;;;;;;;21.83;53.90;96608.47;5040754;28;24430;-76
2021/09/07 09:56:34;;;;;;;11.43;7.40;;;;;;;21.91;53.67;96622.59;5040368;28;24420;-77
2021/09/07 09:59:01;;;;;;;9.17;6.83;;;;;;;22.01;52.88;96613.81;5023482;28;24415;-78
2021/09/07 10:01:27;;;;;;;12.00;7.22;;;;;;;22.17;53.14;96611.38;5040948;28;24419;-76
2021/09/07 10:03:54;;;;;;;9.23;6.27;;;;;;;22.39;51.24;96605.69;5040297;28;24416;-78
2021/09/07 10:06:20;;;;;;;9.88;6.68;;;;;;;22.60;52.65;96600.13;5025092;28;24407;-78
2021/09/07 10:08:46;;;;;;;10.20;7.45;;;;;;;23.00;53.13;96595.41;5042607;28;24515;-78
2021/09/07 10:11:15;;;;;;;9.57;6.67;;;;;;;22.92;48.94;96593.53;5042282;28;24582;-78
2021/09/07 10:13:43;;;;;;;7.97;6.70;;;;;;;23.11;49.25;96598.63;5043018;28;24576;-77
2021/09/07 10:16:15;;;;;;;9.63;6.72;;;;;;;23.48;47.66;96597.53;5042227;28;24388;-77
2021/09/07 10:23:03;;;;;;;8.77;7.07;;;;;;;24.10;52.45;96600.00;5040918;28;24495;-77
2021/09/07 10:24:13;;;;;;;9.50;6.88;;;;;;;24.07;50.65;96595.03;5040434;28;24514;-76
2021/09/07 10:26:39;;;;;;;9.52;6.88;;;;;;;23.99;46.13;96589.69;5038521;28;24790;-77
2021/09/07 10:29:09;;;;;;;7.87;6.50;;;;;;;24.20;53.26;96590.09;5039196;28;24452;-76
2021/09/07 10:31:48;;;;;;;8.50;6.32;;;;;;;24.45;47.09;96585.75;5034065;28;24402;-77
2021/09/07 10:34:18;;;;;;;7.65;6.93;;;;;;;24.39;47.59;96586.38;5032097;28;24518;-77
2021/09/07 10:37:00;;;;;;;9.48;6.72;;;;;;;24.34;51.58;96583.38;5033920;28;24414;-77
2021/09/07 10:39:33;;;;;;;9.43;6.57;;;;;;;24.28;47.84;96589.31;5035490;28;24424;-76
2021/09/07 10:42:01;;;;;;;9.98;6.50;;;;;;;24.07;45.01;96590.56;5033821;28;24482;-77
2021/09/07 10:44:32;;;;;;;8.77;6.65;;;;;;;24.05;44.64;96587.25;5032767;28;24427;-77
2021/09/07 10:47:00;;;;;;;7.38;6.38;;;;;;;24.12;47.38;96587.44;5035278;28;24376;-77
2021/09/07 10:49:32;;;;;;;10.20;6.38;;;;;;;24.23;46.80;96583.66;5035592;28;24934;-77
2021/09/07 10:52:19;;;;;;;8.40;6.75;;;;;;;24.28;49.03;96579.53;5037845;28;24419;-77
2021/09/07 10:54:50;;;;;;;7.80;6.53;;;;;;;24.20;49.81;96584.81;5037042;28;24427;-77
2021/09/07 10:57:34;;;;;;;7.80;6.35;;;;;;;24.14;45.85;96572.25;5035266;28;24754;-78
2021/09/07 11:00:04;;;;;;;7.70;5.95;;;;;;;24.25;51.44;96577.25;5035594;28;24408;-77
2021/09/07 11:02:34;;;;;;;7.15;6.03;;;;;;;24.22;50.10;96569.63;5034435;28;24396;-77
2021/09/07 11:05:04;;;;;;;7.78;6.53;;;;;;;24.28;45.34;96570.78;5037725;28;24786;-77
2021/09/07 11:07:35;;;;;;;9.50;6.03;;;;;;;24.32;47.10;96572.91;5040634;28;24519;-78
2021/09/07 11:10:01;;;;;;;7.18;6.43;;;;;;;24.06;47.01;96562.44;5039464;28;24523;-78
2021/09/07 11:12:31;;;;;;;7.00;6.30;;;;;;;24.14;48.12;96559.00;5037159;28;24402;-78
2021/09/07 11:15:07;;;;;;;8.65;6.55;;;;;;;23.75;48.31;96556.88;5036224;28;24960;-77
2021/09/07 11:17:34;;;;;;;7.85;6.75;;;;;;;24.05;49.26;96560.78;5038092;28;24434;-76
2021/09/07 11:20:07;;;;;;;7.32;6.43;;;;;;;23.99;43.22;96560.59;5039912;28;24423;-77
2021/09/07 11:22:33;;;;;;;8.80;6.87;;;;;;;23.92;44.09;96555.13;5021320;28;24758;-77
2021/09/07 11:25:09;;;;;;;7.32;6.47;;;;;;;24.18;45.78;96548.91;5034274;28;24400;-76
2021/09/07 11:27:58;;;;;;;8.85;6.95;;;;;;;23.94;44.08;96557.59;5032688;28;24500;-77